Nearby METAR Reports

 

KLMT - Klamath Falls, Oregon, USA
Distance from station: WNW 15mi, 25km
Updated: 06/20/2018 10:53am
Few Clouds
Few Clouds
 Wind from SE
Wind: SE 3 mph , 6 km/h
Temperature: 75°F , 24°C
Dew Point: 50°F , 10°C
Humidity: 41%
Barometer: 30.07 inHg , 1018.3 hPa
Clouds: Few Clouds
Visibility: 10 miles , 16 km
Cloud details: Few Clouds 8000 ft
2018/06/20 17:53 KLMT 201753Z 14003KT 10SM FEW080 24/10 A3007 RMK AO2 SLP141 T02390100 10244 20094 58008
KLKV - Lakeview, Oregon, USA
Distance from station: E 53mi, 85km
Updated: 06/20/2018 10:53am
Clear
Clear
 Wind from SSE
Wind: SSE 7 mph , 11 km/h
Temperature: 75°F , 24°C
Dew Point: 48°F , 9°C
Humidity: 39%
Barometer: 30.12 inHg , 1020 hPa
Clouds: Clear
Visibility: 10 miles , 16 km
2018/06/20 17:53 KLKV 201753Z AUTO 16006KT 10SM CLR 24/09 A3012 RMK AO2 SLP665 T02440089 10244 20083 58007
 
KSIY - Montague/Siskiyo, California, USA
Distance from station: WSW 58mi, 93km
Updated: 06/20/2018 10:53am
Clear
Clear
 Wind from WNW
Wind: WNW 5 mph , 7 km/h
Temperature: 81°F , 27°C
Dew Point: 45°F , 7°C
Humidity: 28%
Barometer: 30.01 inHg , 1016.3 hPa
Clouds: Clear
Visibility: 10 miles , 16 km
2018/06/20 17:53 KSIY 201753Z AUTO 29004KT 10SM CLR 27/07 A3001 RMK AO2 SLP145 T02670072 10267 20117 58010
KAAT - Alturas, California, USA
Distance from station: SE 61mi, 98km
Updated: 06/20/2018 10:55am
Clear
Clear
 Wind from SSE
Wind: SSE 7 mph , 11 km/h
Temperature: 81°F , 27°C
Dew Point: 46°F , 8°C
Humidity: 30%
Barometer: 30.08 inHg , 1018.6 hPa
Clouds: Clear
Visibility: 10 miles , 16 km
2018/06/20 17:55 KAAT 201755Z AUTO 15006KT 10SM CLR 27/08 A3008 RMK AO2 SLP143 T02670078 10267 20061 58013
 
KMHS - Mount Shasta, California, USA
Distance from station: SW 70mi, 113km
Updated: 06/20/2018 10:56am
Clear
Clear
 Wind from calm
Wind: Calm
Temperature: 81°F , 27°C
Dew Point: 52°F , 11°C
Humidity: 37%
Barometer: 30.04 inHg , 1017.3 hPa
Clouds: Clear
Visibility: 10 miles , 16 km
2018/06/20 17:56 KMHS 201756Z AUTO 00000KT 10SM CLR 27/11 A3004 RMK AO2 SLP160 T02670106 10267 20094 58005
KMFR - Medford, Oregon, USA
Distance from station: WNW 76mi, 123km
Updated: 06/20/2018 10:53am
Clear
Clear
 Wind from varies
Wind: varies 3 mph , 6 km/h
Temperature: 79°F , 26°C
Dew Point: 50°F , 10°C
Humidity: 37%
Barometer: 29.94 inHg , 1013.9 hPa
Clouds: Clear
Visibility: 10 miles , 16 km
2018/06/20 17:53 KMFR 201753Z VRB03KT 10SM CLR 26/10 A2994 RMK AO2 SLP124 T02610100 10261 20156 58015